Time,TemperatureF,DewpointF,PressureIn,WindDirection,WindDirectionDegrees,WindSpeedMPH,WindSpeedGustMPH,Humidity,HourlyPrecipIn,Conditions,Clouds,dailyrainin,SolarRadiationWatts/m^2,SoftwareType,DateUTC
2013-02-16 00:02:00,5.0,-5.0,-100.00,WSW,245,2.0,4.0,63,0.00,,,0.00,0.000000,,2013-02-16 06:02:00,
2013-02-16 00:32:00,2.0,-4.0,-100.00,SW,232,3.0,4.0,76,0.00,,,0.00,0.000000,,2013-02-16 06:32:00,
2013-02-16 00:42:00,2.0,-4.0,-100.00,SW,232,3.0,4.0,76,0.00,,,0.00,0.000000,,2013-02-16 06:42:00,
2013-02-16 00:52:00,2.0,-4.0,-100.00,SW,232,3.0,4.0,76,0.00,,,0.00,0.000000,,2013-02-16 06:52:00,
2013-02-16 01:02:00,2.0,-4.0,-100.00,SW,232,3.0,4.0,76,0.00,,,0.00,0.000000,,2013-02-16 07:02:00,
2013-02-16 01:32:00,5.0,-3.0,-100.00,SW,234,3.0,5.0,69,0.00,,,0.00,0.000000,,2013-02-16 07:32:00,
2013-02-16 01:42:00,5.0,-3.0,-100.00,SW,234,3.0,5.0,69,0.00,,,0.00,0.000000,,2013-02-16 07:42:00,
2013-02-16 01:53:00,5.0,-3.0,-100.00,SW,234,3.0,5.0,69,0.00,,,0.00,0.000000,,2013-02-16 07:53:00,
2013-02-16 02:01:00,5.0,-3.0,-100.00,SW,234,3.0,5.0,69,0.00,,,0.00,0.000000,,2013-02-16 08:01:00,
2013-02-16 02:32:00,4.0,-4.0,-100.00,SW,235,3.0,6.0,68,0.00,,,0.00,0.000000,,2013-02-16 08:32:00,
2013-02-16 02:42:00,4.0,-4.0,-100.00,SW,235,3.0,6.0,68,0.00,,,0.00,0.000000,,2013-02-16 08:42:00,
2013-02-16 02:52:00,4.0,-4.0,-100.00,SW,235,3.0,6.0,68,0.00,,,0.00,0.000000,,2013-02-16 08:52:00,
2013-02-16 03:01:00,4.0,-4.0,-100.00,SW,235,3.0,6.0,68,0.00,,,0.00,0.000000,,2013-02-16 09:01:00,
2013-02-16 04:32:00,0.0,-5.0,-100.00,SW,221,3.0,5.0,77,-99.99,,,0.00,0.000000,,2013-02-16 10:32:00,
2013-02-16 04:42:00,0.0,-5.0,-100.00,SW,221,3.0,5.0,77,-99.99,,,0.00,0.000000,,2013-02-16 10:42:00,
2013-02-16 04:52:00,0.0,-5.0,-100.00,SW,221,3.0,5.0,77,-99.99,,,0.00,0.000000,,2013-02-16 10:52:00,
2013-02-16 05:02:00,0.0,-5.0,-100.00,SW,221,3.0,5.0,77,-99.99,,,0.00,0.000000,,2013-02-16 11:02:00,
2013-02-16 05:32:00,-2.0,-7.0,-100.00,WSW,248,3.0,4.0,79,0.00,,,0.00,0.000000,,2013-02-16 11:32:00,
2013-02-16 05:42:00,-2.0,-7.0,-100.00,WSW,248,3.0,4.0,79,0.00,,,0.00,0.000000,,2013-02-16 11:42:00,
2013-02-16 05:52:00,-2.0,-7.0,-100.00,WSW,248,3.0,4.0,79,0.00,,,0.00,0.000000,,2013-02-16 11:52:00,
2013-02-16 06:01:00,-2.0,-7.0,-100.00,WSW,248,3.0,4.0,79,0.00,,,0.00,0.000000,,2013-02-16 12:01:00,
2013-02-16 06:32:00,-6.0,-11.0,-100.00,WSW,242,3.0,4.0,80,0.00,,,0.00,0.000000,,2013-02-16 12:32:00,
2013-02-16 06:42:00,-6.0,-11.0,-100.00,WSW,242,3.0,4.0,80,0.00,,,0.00,0.000000,,2013-02-16 12:42:00,
2013-02-16 06:52:00,-6.0,-11.0,-100.00,WSW,242,3.0,4.0,80,0.00,,,0.00,0.000000,,2013-02-16 12:52:00,
2013-02-16 07:02:00,-6.0,-11.0,-100.00,WSW,242,3.0,4.0,80,0.00,,,0.00,0.000000,,2013-02-16 13:02:00,
2013-02-16 08:32:00,-6.0,-13.0,-100.00,SE,138,1.0,2.0,70,-99.99,,,0.00,28.000000,,2013-02-16 14:32:00,
2013-02-16 08:42:00,-6.0,-13.0,-100.00,SE,138,1.0,2.0,70,-99.99,,,0.00,28.000000,,2013-02-16 14:42:00,
2013-02-16 08:52:00,-6.0,-13.0,-100.00,SE,138,1.0,2.0,70,-99.99,,,0.00,28.000000,,2013-02-16 14:52:00,
2013-02-16 09:01:00,-6.0,-13.0,-100.00,SE,138,1.0,2.0,70,-99.99,,,0.00,28.000000,,2013-02-16 15:01:00,
2013-02-16 09:32:00,8.0,-1.0,-100.00,WSW,255,4.0,6.0,67,0.00,,,0.00,166.000000,,2013-02-16 15:32:00,
2013-02-16 10:01:00,8.0,-1.0,-100.00,WSW,255,4.0,6.0,67,0.00,,,0.00,166.000000,,2013-02-16 16:01:00,
2013-02-16 10:32:00,16.0,2.0,-100.00,WNW,293,3.0,7.0,53,0.00,,,0.00,318.000000,,2013-02-16 16:32:00,
2013-02-16 11:01:00,16.0,2.0,-100.00,WNW,293,3.0,7.0,53,0.00,,,0.00,318.000000,,2013-02-16 17:01:00,
2013-02-16 11:32:00,19.0,2.0,-100.00,WNW,282,4.0,8.0,47,0.00,,,-99.99,449.000000,,2013-02-16 17:32:00,
2013-02-16 11:42:00,19.0,2.0,-100.00,WNW,282,4.0,8.0,47,0.00,,,-99.99,449.000000,,2013-02-16 17:42:00,
2013-02-16 11:52:00,19.0,2.0,-100.00,WNW,282,4.0,8.0,47,0.00,,,-99.99,449.000000,,2013-02-16 17:52:00,
2013-02-16 12:02:00,19.0,2.0,-100.00,WNW,282,4.0,8.0,47,0.00,,,-99.99,449.000000,,2013-02-16 18:02:00,
2013-02-16 12:33:00,19.0,1.0,-100.00,SSW,210,4.0,7.0,44,0.00,,,0.00,458.000000,,2013-02-16 18:33:00,
2013-02-16 12:42:00,19.0,1.0,-100.00,SSW,210,4.0,7.0,44,0.00,,,0.00,458.000000,,2013-02-16 18:42:00,
2013-02-16 12:52:00,19.0,1.0,-100.00,SSW,210,4.0,7.0,44,0.00,,,0.00,458.000000,,2013-02-16 18:52:00,
2013-02-16 13:02:00,19.0,1.0,-100.00,SSW,210,4.0,7.0,44,0.00,,,0.00,458.000000,,2013-02-16 19:02:00,
2013-02-16 13:32:00,20.0,0.0,-100.00,ESE,107,5.0,10.0,40,0.00,,,0.00,564.000000,,2013-02-16 19:32:00,
2013-02-16 13:42:00,20.0,0.0,-100.00,ESE,107,5.0,10.0,40,0.00,,,0.00,564.000000,,2013-02-16 19:42:00,
2013-02-16 13:52:00,20.0,0.0,-100.00,ESE,107,5.0,10.0,40,0.00,,,0.00,564.000000,,2013-02-16 19:52:00,
2013-02-16 14:01:00,20.0,0.0,-100.00,ESE,107,5.0,10.0,40,0.00,,,0.00,564.000000,,2013-02-16 20:01:00,
2013-02-16 14:32:00,24.0,3.0,-100.00,SSE,166,3.0,10.0,39,0.00,,,0.00,527.000000,,2013-02-16 20:32:00,
2013-02-16 15:32:00,22.0,0.0,-100.00,SE,136,3.0,8.0,38,0.00,,,0.00,446.000000,,2013-02-16 21:32:00,
2013-02-16 15:42:00,22.0,0.0,-100.00,SE,136,3.0,8.0,38,0.00,,,0.00,446.000000,,2013-02-16 21:42:00,
2013-02-16 15:52:00,22.0,0.0,-100.00,SE,136,3.0,8.0,38,0.00,,,0.00,446.000000,,2013-02-16 21:52:00,
2013-02-16 16:01:00,22.0,0.0,-100.00,SE,136,3.0,8.0,38,0.00,,,0.00,446.000000,,2013-02-16 22:01:00,
2013-02-16 16:32:00,21.0,1.0,-100.00,WNW,290,3.0,9.0,40,0.00,,,0.00,319.000000,,2013-02-16 22:32:00,
2013-02-16 16:42:00,21.0,1.0,-100.00,WNW,290,3.0,9.0,40,0.00,,,0.00,319.000000,,2013-02-16 22:42:00,
2013-02-16 16:52:00,21.0,1.0,-100.00,WNW,290,3.0,9.0,40,0.00,,,0.00,319.000000,,2013-02-16 22:52:00,
2013-02-16 17:02:00,21.0,1.0,-100.00,WNW,290,3.0,9.0,40,0.00,,,0.00,319.000000,,2013-02-16 23:02:00,
2013-02-16 17:32:00,19.0,0.0,-100.00,WNW,282,2.0,5.0,42,0.00,,,0.00,165.000000,,2013-02-16 23:32:00,
2013-02-16 17:42:00,19.0,0.0,-100.00,WNW,282,2.0,5.0,42,0.00,,,0.00,165.000000,,2013-02-16 23:42:00,
2013-02-16 17:52:00,19.0,0.0,-100.00,WNW,282,2.0,5.0,42,0.00,,,0.00,165.000000,,2013-02-16 23:52:00,
2013-02-16 18:02:00,19.0,0.0,-100.00,WNW,282,2.0,5.0,42,0.00,,,0.00,165.000000,,2013-02-17 00:02:00,
2013-02-16 18:32:00,7.0,-5.0,-100.00,SW,219,0.0,4.0,56,0.00,,,0.00,12.000000,,2013-02-17 00:32:00,
2013-02-16 19:01:00,7.0,-5.0,-100.00,SW,219,0.0,4.0,56,0.00,,,0.00,12.000000,,2013-02-17 01:01:00,
2013-02-16 20:32:00,-3.0,-9.0,-100.00,East,91,1.0,2.0,75,-99.99,,,0.00,0.000000,,2013-02-17 02:32:00,
2013-02-16 21:02:00,-3.0,-9.0,-100.00,East,91,1.0,2.0,75,-99.99,,,0.00,0.000000,,2013-02-17 03:02:00,
2013-02-16 21:32:00,-6.0,-12.0,-100.00,SE,140,0.0,3.0,75,0.00,,,0.00,0.000000,,2013-02-17 03:32:00,
2013-02-16 22:32:00,-9.0,-15.0,-100.00,ESE,110,2.0,2.0,74,-99.99,,,0.00,0.000000,,2013-02-17 04:32:00,
2013-02-16 23:33:00,-11.0,-18.0,-100.00,SE,131,1.0,2.0,71,-99.99,,,0.00,0.000000,,2013-02-17 05:33:00,